createdAt,value
2023-03-01T00:01:41.780Z,10.57
2023-03-01T00:04:09.118Z,12.85
2023-03-01T00:06:36.708Z,11.13
2023-03-01T00:09:04.601Z,11.55
2023-03-01T00:11:33.988Z,13.25
2023-03-01T00:14:02.588Z,11.88
2023-03-01T00:16:34.702Z,11.93
2023-03-01T00:19:02.178Z,12.38
2023-03-01T00:21:30.147Z,12.55
2023-03-01T00:23:58.667Z,11.63
2023-03-01T00:26:27.315Z,11.63
2023-03-01T00:28:58.561Z,12.07
2023-03-01T00:31:28.594Z,12.10
2023-03-01T00:34:01.467Z,13.18
2023-03-01T00:36:35.282Z,13.63
2023-03-01T00:39:04.166Z,13.02
2023-03-01T00:41:32.173Z,12.13
2023-03-01T00:43:59.793Z,12.23
2023-03-01T00:46:28.320Z,13.18
2023-03-01T00:48:57.584Z,11.20
2023-03-01T00:51:28.919Z,12.02
2023-03-01T00:54:01.513Z,11.85
2023-03-01T00:56:31.202Z,11.30
2023-03-01T00:58:59.352Z,11.25
2023-03-01T01:01:32.092Z,11.93
2023-03-01T01:04:02.707Z,11.15
2023-03-01T01:06:36.349Z,11.70
2023-03-01T01:09:06.127Z,10.73
2023-03-01T01:11:36.266Z,9.38
2023-03-01T01:14:03.989Z,10.57
2023-03-01T01:16:32.069Z,11.55
2023-03-01T01:18:59.741Z,11.32
2023-03-01T01:21:28.653Z,12.15
2023-03-01T01:23:56.560Z,11.88
2023-03-01T01:26:26.477Z,11.30
2023-03-01T01:28:54.788Z,11.90
2023-03-01T01:31:24.984Z,12.30
2023-03-01T01:33:53.986Z,12.20
2023-03-01T01:36:21.730Z,11.48
2023-03-01T01:38:49.312Z,11.55
2023-03-01T01:41:17.711Z,11.25
2023-03-01T01:44:04.802Z,10.68
2023-03-01T01:46:38.678Z,10.93
2023-03-01T01:49:25.216Z,10.82
2023-03-01T01:52:03.121Z,11.00
2023-03-01T01:54:40.679Z,11.13
2023-03-01T01:57:13.487Z,10.73
2023-03-01T01:59:44.567Z,11.35
2023-03-01T02:02:12.976Z,10.27
2023-03-01T02:04:41.113Z,9.00
2023-03-01T02:07:14.544Z,8.80
2023-03-01T02:09:46.195Z,6.38
2023-03-01T02:12:18.520Z,5.13
2023-03-01T02:14:46.184Z,4.95
2023-03-01T02:17:16.247Z,4.60
2023-03-01T02:20:28.562Z,4.78
2023-03-01T02:22:56.517Z,4.53
2023-03-01T02:25:53.065Z,4.65
2023-03-01T02:28:37.347Z,4.30
2023-03-01T02:31:25.771Z,4.20
2023-03-01T02:33:54.080Z,3.60
2023-03-01T02:36:35.543Z,3.75
2023-03-01T02:39:06.907Z,4.03
2023-03-01T02:41:38.926Z,4.03
2023-03-01T02:44:06.681Z,4.13
2023-03-01T02:46:34.329Z,3.60
2023-03-01T02:49:02.486Z,3.78
2023-03-01T02:51:42.208Z,4.05
2023-03-01T02:54:18.897Z,3.90
2023-03-01T02:56:49.868Z,3.47
2023-03-01T02:59:21.916Z,3.47
2023-03-01T03:01:50.198Z,3.05
2023-03-01T03:04:20.368Z,3.05
2023-03-01T03:06:51.616Z,3.60
2023-03-01T03:09:20.146Z,2.80
2023-03-01T03:11:47.899Z,3.55
2023-03-01T03:14:17.646Z,3.30
2023-03-01T03:16:50.098Z,3.55
2023-03-01T03:19:18.838Z,3.03
2023-03-01T03:21:46.810Z,3.70
2023-03-01T03:24:14.283Z,3.00
2023-03-01T03:26:41.592Z,3.00
2023-03-01T03:29:08.875Z,3.10
2023-03-01T03:31:36.284Z,2.83
2023-03-01T03:34:04.023Z,2.92
2023-03-01T03:36:31.380Z,2.40
2023-03-01T03:38:58.842Z,3.05
2023-03-01T03:41:26.106Z,3.33
2023-03-01T03:43:53.813Z,3.33
2023-03-01T03:46:21.042Z,3.10
2023-03-01T03:48:49.553Z,3.05
2023-03-01T03:51:18.463Z,3.65
2023-03-01T03:53:46.571Z,2.40
2023-03-01T03:56:13.975Z,2.78
2023-03-01T03:58:41.660Z,3.08
2023-03-01T04:01:09.410Z,2.65
2023-03-01T04:03:36.729Z,3.20
2023-03-01T04:06:05.448Z,3.03
2023-03-01T04:08:32.963Z,2.70
2023-03-01T04:11:25.005Z,2.60
2023-03-01T04:13:54.034Z,3.30
2023-03-01T04:16:21.454Z,2.55
2023-03-01T04:18:49.474Z,9.30
2023-03-01T04:21:16.738Z,2.70
2023-03-01T04:23:45.565Z,2.72
2023-03-01T04:26:13.254Z,2.88
2023-03-01T04:28:44.011Z,2.45
2023-03-01T04:31:14.786Z,2.50
2023-03-01T04:33:54.515Z,2.33
2023-03-01T04:36:27.112Z,2.72
2023-03-01T04:38:55.094Z,3.35
2023-03-01T04:41:24.341Z,2.65
2023-03-01T04:43:51.983Z,2.40
2023-03-01T04:46:21.299Z,2.22
2023-03-01T04:48:49.285Z,2.40
2023-03-01T04:51:19.346Z,2.70
2023-03-01T04:53:47.086Z,2.25
2023-03-01T04:56:15.071Z,1.95
2023-03-01T04:58:42.958Z,1.95
2023-03-01T05:01:17.649Z,2.33
2023-03-01T05:03:46.351Z,2.10
2023-03-01T05:06:14.438Z,2.47
2023-03-01T05:08:42.805Z,2.30
2023-03-01T05:11:10.911Z,1.92
2023-03-01T05:13:39.707Z,2.35
2023-03-01T05:16:08.150Z,2.25
2023-03-01T05:18:35.872Z,1.80
2023-03-01T05:21:09.435Z,2.00
2023-03-01T05:23:37.339Z,2.13
2023-03-01T05:26:07.515Z,1.75
2023-03-01T05:28:35.640Z,2.40
2023-03-01T05:31:03.499Z,2.38
2023-03-01T05:33:30.691Z,2.42
2023-03-01T05:36:01.208Z,2.20
2023-03-01T05:38:28.523Z,1.90
2023-03-01T05:40:55.895Z,1.55
2023-03-01T05:43:23.331Z,2.28
2023-03-01T05:45:50.738Z,2.20
2023-03-01T05:48:20.374Z,3.25
2023-03-01T05:50:48.652Z,2.17
2023-03-01T05:53:22.756Z,2.28
2023-03-01T05:55:50.883Z,2.55
2023-03-01T05:58:20.853Z,3.00
2023-03-01T06:00:49.705Z,2.83
2023-03-01T06:03:18.663Z,3.25
2023-03-01T06:05:46.221Z,3.40
2023-03-01T06:08:14.009Z,3.15
2023-03-01T06:10:41.784Z,3.40
2023-03-01T06:13:09.264Z,3.47
2023-03-01T06:15:36.710Z,2.95
2023-03-01T06:18:04.282Z,3.08
2023-03-01T06:20:31.695Z,3.70
2023-03-01T06:22:59.347Z,3.17
2023-03-01T06:25:29.562Z,3.42
2023-03-01T06:27:57.278Z,3.05
2023-03-01T06:30:26.626Z,3.53
2023-03-01T06:33:02.313Z,3.53
2023-03-01T06:35:30.859Z,3.58
2023-03-01T06:38:00.532Z,3.38
2023-03-01T06:40:28.974Z,3.92
2023-03-01T06:42:56.312Z,4.00
2023-03-01T06:45:24.366Z,3.47
2023-03-01T06:47:51.942Z,3.55
2023-03-01T06:50:19.812Z,3.30
2023-03-01T07:00:09.783Z,2.92
2023-03-01T07:02:37.158Z,3.03
2023-03-01T07:05:04.800Z,2.67
2023-03-01T07:07:32.237Z,3.35
2023-03-01T07:09:59.616Z,3.40
2023-03-01T07:12:26.920Z,3.00
2023-03-01T07:14:54.289Z,2.85
2023-03-01T07:17:21.840Z,2.40
2023-03-01T07:19:49.256Z,2.58
2023-03-01T07:22:16.977Z,2.85
2023-03-01T07:24:44.702Z,3.10
2023-03-01T07:27:13.188Z,2.72
2023-03-01T07:29:40.873Z,3.20
2023-03-01T07:32:08.759Z,2.92
2023-03-01T07:34:36.447Z,3.13
2023-03-01T07:37:03.705Z,4.00
2023-03-01T07:39:31.441Z,3.00
2023-03-01T07:41:58.934Z,3.67
2023-03-01T07:44:27.941Z,3.58
2023-03-01T07:46:57.521Z,3.03
2023-03-01T07:49:25.424Z,3.25
2023-03-01T07:51:53.084Z,4.15
2023-03-01T07:54:20.585Z,3.20
2023-03-01T07:56:48.002Z,4.25
2023-03-01T07:59:15.658Z,3.33
2023-03-01T08:01:43.113Z,3.20
2023-03-01T08:04:10.567Z,4.00
2023-03-01T08:06:38.318Z,2.90
2023-03-01T08:09:05.822Z,3.33
2023-03-01T08:11:33.389Z,3.05
2023-03-01T08:14:00.842Z,3.15
2023-03-01T08:16:28.920Z,4.45
2023-03-01T08:18:57.735Z,2.88
2023-03-01T08:21:25.116Z,3.33
2023-03-01T08:23:52.778Z,2.63
2023-03-01T08:26:21.699Z,3.08
2023-03-01T08:28:52.073Z,2.58
2023-03-01T08:31:32.114Z,3.53
2023-03-01T08:34:02.374Z,3.08
2023-03-01T08:36:32.865Z,2.60
2023-03-01T08:39:00.931Z,2.45
2023-03-01T08:41:28.951Z,2.42
2023-03-01T08:44:00.005Z,2.22
2023-03-01T08:46:29.802Z,2.53
2023-03-01T08:48:57.645Z,2.67
2023-03-01T08:51:26.440Z,2.35
2023-03-01T08:53:53.825Z,2.25
2023-03-01T08:56:21.132Z,2.53
2023-03-01T08:58:49.528Z,2.33
2023-03-01T09:01:19.586Z,2.60
2023-03-01T09:03:47.688Z,2.30
2023-03-01T09:06:16.731Z,2.08
2023-03-01T09:08:46.861Z,2.00
2023-03-01T09:11:20.823Z,3.10
2023-03-01T09:13:49.841Z,2.35
2023-03-01T09:16:20.211Z,2.50
2023-03-01T09:18:52.274Z,2.40
2023-03-01T09:21:33.789Z,2.53
2023-03-01T09:24:08.121Z,2.05
2023-03-01T09:26:35.443Z,2.90
2023-03-01T09:29:02.745Z,2.05
2023-03-01T09:31:30.015Z,2.33
2023-03-01T09:33:57.373Z,2.25
2023-03-01T09:36:28.442Z,2.00
2023-03-01T09:38:56.005Z,2.13
2023-03-01T09:41:43.610Z,2.42
2023-03-01T09:44:38.703Z,2.28
2023-03-01T09:47:12.422Z,2.35
2023-03-01T09:49:50.083Z,2.70
2023-03-01T09:52:42.717Z,2.47
2023-03-01T09:55:21.575Z,2.28
2023-03-01T09:58:04.265Z,2.70
2023-03-01T10:00:44.341Z,2.50
2023-03-01T10:03:19.268Z,1.88
2023-03-01T10:06:05.426Z,2.58
2023-03-01T10:08:40.092Z,2.30
2023-03-01T10:11:48.012Z,2.95
2023-03-01T10:14:43.482Z,1.73
2023-03-01T10:17:36.186Z,2.40
2023-03-01T10:20:18.256Z,1.83
2023-03-01T10:22:53.268Z,1.92
2023-03-01T10:25:32.801Z,2.00
2023-03-01T10:28:11.810Z,1.60
2023-03-01T10:30:43.146Z,1.30
2023-03-01T10:33:33.490Z,1.33
2023-03-01T10:36:01.228Z,0.80
2023-03-01T10:38:32.781Z,1.25
2023-03-01T10:41:08.222Z,1.30
2023-03-01T10:43:44.701Z,0.65
2023-03-01T10:46:29.294Z,1.08
2023-03-01T10:49:15.785Z,1.02
2023-03-01T10:51:46.336Z,0.90
2023-03-01T10:54:28.924Z,0.68
2023-03-01T10:57:05.895Z,0.82
2023-03-01T10:59:34.854Z,0.85
2023-03-01T11:02:32.012Z,0.85
2023-03-01T11:05:14.522Z,0.88
2023-03-01T11:07:53.986Z,1.08
2023-03-01T11:10:24.961Z,0.98
2023-03-01T11:12:54.016Z,0.85
2023-03-01T11:15:31.341Z,1.02
2023-03-01T11:18:12.779Z,1.20
2023-03-01T11:20:41.508Z,1.20
2023-03-01T11:23:16.393Z,1.65
2023-03-01T11:25:52.647Z,1.02
2023-03-01T11:28:22.538Z,1.43
2023-03-01T11:31:07.570Z,0.98
2023-03-01T11:33:47.569Z,1.23
2023-03-01T11:36:37.073Z,1.13
2023-03-01T11:39:28.330Z,1.15
2023-03-01T11:42:18.646Z,1.52
2023-03-01T11:44:50.779Z,1.38
2023-03-01T11:47:42.816Z,1.60
2023-03-01T11:50:10.254Z,1.38
2023-03-01T11:53:01.690Z,2.40
2023-03-01T11:55:45.634Z,1.35
2023-03-01T11:58:54.466Z,2.05
2023-03-01T12:04:12.728Z,2.22
2023-03-01T12:06:58.387Z,1.98
2023-03-01T12:10:03.007Z,1.90
2023-03-01T12:12:42.407Z,2.13
2023-03-01T12:16:03.904Z,1.70
2023-03-01T12:18:37.326Z,1.92
2023-03-01T12:21:24.671Z,1.67
2023-03-01T12:24:27.661Z,1.17
2023-03-01T12:27:12.182Z,1.67
2023-03-01T12:29:48.365Z,2.00
2023-03-01T12:32:50.705Z,2.15
2023-03-01T12:35:48.775Z,1.67
2023-03-01T12:38:26.377Z,2.47
2023-03-01T12:41:12.766Z,1.85
2023-03-01T12:43:55.666Z,2.08
2023-03-01T12:46:45.987Z,2.03
2023-03-01T12:49:46.119Z,2.00
2023-03-01T12:52:45.892Z,1.70
2023-03-01T12:55:36.901Z,2.53
2023-03-01T12:58:49.709Z,2.10
2023-03-01T13:01:40.168Z,1.88
2023-03-01T13:04:28.301Z,1.75
2023-03-01T13:07:08.305Z,1.67
2023-03-01T13:09:51.171Z,2.17
2023-03-01T13:12:43.426Z,1.67
2023-03-01T13:15:30.535Z,3.47
2023-03-01T13:18:11.302Z,2.30
2023-03-01T13:20:44.914Z,2.38
2023-03-01T13:23:13.391Z,2.17
2023-03-01T13:26:14.551Z,2.05
2023-03-01T13:28:49.727Z,1.40
2023-03-01T13:31:17.064Z,1.15
2023-03-01T13:33:50.189Z,1.70
2023-03-01T13:36:48.193Z,1.63
2023-03-01T13:39:29.051Z,2.00
2023-03-01T13:41:58.564Z,1.42
2023-03-01T13:44:31.743Z,1.70
2023-03-01T13:47:01.084Z,1.80
2023-03-01T13:49:45.615Z,2.00
2023-03-01T13:52:51.557Z,1.73
2023-03-01T13:55:19.104Z,2.28
2023-03-01T13:58:02.335Z,2.97
2023-03-01T14:00:34.161Z,2.22
2023-03-01T14:03:08.449Z,2.10
2023-03-01T14:05:41.270Z,3.55
2023-03-01T14:08:28.025Z,1.88
2023-03-01T14:11:30.010Z,1.60
2023-03-01T14:14:15.082Z,3.10
2023-03-01T14:16:57.144Z,2.70
2023-03-01T14:19:34.304Z,2.38
2023-03-01T14:24:37.980Z,3.20
2023-03-01T14:27:06.551Z,2.30
2023-03-01T14:29:39.617Z,1.33
2023-03-01T14:32:14.115Z,1.85
2023-03-01T14:34:49.348Z,1.58
2023-03-01T14:37:29.076Z,1.65
2023-03-01T14:39:57.550Z,1.73
2023-03-01T14:42:29.180Z,1.75
2023-03-01T14:44:58.516Z,1.80
2023-03-01T14:47:34.665Z,3.03
2023-03-01T14:50:32.242Z,2.78
2023-03-01T14:53:02.875Z,1.92
2023-03-01T14:55:35.834Z,2.00
2023-03-01T14:58:10.594Z,2.05
2023-03-01T15:00:38.553Z,2.05
2023-03-01T15:03:14.782Z,1.38
2023-03-01T15:05:44.121Z,1.07
2023-03-01T15:08:25.597Z,1.55
2023-03-01T15:11:03.944Z,1.67
2023-03-01T15:13:36.063Z,1.48
2023-03-01T15:16:10.592Z,1.73
2023-03-01T15:18:38.688Z,1.55
2023-03-01T15:21:17.388Z,1.45
2023-03-01T15:23:54.567Z,1.75
2023-03-01T15:29:00.784Z,1.30
2023-03-01T15:31:32.732Z,1.58
2023-03-01T15:34:24.500Z,1.77
2023-03-01T15:36:54.355Z,1.58
2023-03-01T15:39:54.371Z,1.23
2023-03-01T15:42:30.995Z,1.63
2023-03-01T15:45:18.063Z,2.00
2023-03-01T15:47:54.028Z,2.10
2023-03-01T15:50:26.390Z,1.55
2023-03-01T15:52:56.415Z,2.13
2023-03-01T15:55:30.344Z,2.75
2023-03-01T15:58:13.680Z,2.05
2023-03-01T16:00:48.729Z,2.58
2023-03-01T16:03:27.191Z,1.60
2023-03-01T16:05:54.861Z,1.65
2023-03-01T16:08:23.156Z,2.30
2023-03-01T16:10:52.335Z,1.70
2023-03-01T16:13:20.409Z,1.70
2023-03-01T16:15:48.392Z,1.75
2023-03-01T16:18:15.755Z,1.48
2023-03-01T16:20:43.172Z,1.80
2023-03-01T16:23:12.794Z,1.80
2023-03-01T16:25:40.364Z,2.05
2023-03-01T16:28:11.310Z,2.38
2023-03-01T16:30:40.813Z,2.50
2023-03-01T16:33:27.589Z,3.60
2023-03-01T16:35:57.299Z,2.17
2023-03-01T16:38:24.777Z,2.00
2023-03-01T16:40:53.518Z,2.00
2023-03-01T16:43:21.040Z,1.58
2023-03-01T16:45:48.692Z,1.75
2023-03-01T16:48:16.395Z,1.80
2023-03-01T16:50:43.794Z,3.10
2023-03-01T16:53:11.249Z,5.65
2023-03-01T16:55:46.242Z,2.65
2023-03-01T16:58:16.476Z,2.70
2023-03-01T17:00:44.027Z,2.78
2023-03-01T17:03:12.039Z,2.40
2023-03-01T17:05:41.495Z,2.60
2023-03-01T17:08:08.984Z,2.83
2023-03-01T17:10:37.129Z,2.05
2023-03-01T17:13:05.143Z,2.17
2023-03-01T17:15:32.931Z,2.33
2023-03-01T17:18:00.470Z,2.33
2023-03-01T17:20:28.445Z,2.28
2023-03-01T17:22:55.977Z,2.30
2023-03-01T17:25:23.304Z,1.70
2023-03-01T17:27:50.828Z,2.28
2023-03-01T17:30:18.415Z,2.33
2023-03-01T17:32:46.057Z,1.88
2023-03-01T17:35:13.534Z,2.00
2023-03-01T17:37:46.584Z,1.52
2023-03-01T17:40:14.322Z,2.75
2023-03-01T17:42:41.793Z,2.33
2023-03-01T17:45:09.655Z,2.92
2023-03-01T17:47:37.307Z,2.80
2023-03-01T17:50:06.404Z,2.10
2023-03-01T17:52:33.803Z,3.15
2023-03-01T17:55:01.291Z,2.40
2023-03-01T17:57:28.573Z,2.42
2023-03-01T17:59:57.623Z,2.53
2023-03-01T18:02:26.572Z,2.45
2023-03-01T18:04:58.913Z,2.42
2023-03-01T18:07:27.597Z,2.78
2023-03-01T18:09:55.799Z,2.33
2023-03-01T18:12:23.246Z,2.33
2023-03-01T18:14:53.689Z,3.75
2023-03-01T18:17:24.053Z,2.60
2023-03-01T18:19:52.169Z,3.08
2023-03-01T18:22:22.927Z,3.22
2023-03-01T18:24:50.832Z,2.90
2023-03-01T18:27:18.504Z,3.33
2023-03-01T18:29:45.850Z,3.60
2023-03-01T18:32:13.222Z,3.33
2023-03-01T18:34:40.541Z,3.40
2023-03-01T18:37:09.973Z,4.40
2023-03-01T18:39:38.400Z,3.50
2023-03-01T18:42:05.849Z,3.38
2023-03-01T18:44:33.500Z,3.88
2023-03-01T18:47:01.049Z,3.00
2023-03-01T18:49:28.553Z,3.00
2023-03-01T18:51:56.631Z,2.78
2023-03-01T18:54:24.192Z,3.05
2023-03-01T18:56:51.631Z,2.75
2023-03-01T18:59:18.976Z,2.22
2023-03-01T19:01:46.829Z,2.65
2023-03-01T19:04:15.062Z,2.67
2023-03-01T19:06:42.659Z,2.05
2023-03-01T19:09:11.412Z,2.33
2023-03-01T19:11:40.664Z,2.70
2023-03-01T19:14:08.732Z,2.83
2023-03-01T19:16:35.914Z,2.33
2023-03-01T19:19:05.798Z,2.33
2023-03-01T19:21:34.114Z,2.80
2023-03-01T19:24:04.547Z,3.10
2023-03-01T19:26:33.018Z,3.25
2023-03-01T19:29:01.273Z,3.50
2023-03-01T19:31:30.759Z,2.42
2023-03-01T19:34:11.450Z,2.97
2023-03-01T19:36:42.570Z,2.67
2023-03-01T19:39:13.331Z,1.80
2023-03-01T19:41:41.021Z,2.45
2023-03-01T19:44:08.929Z,2.78
2023-03-01T19:46:36.795Z,2.40
2023-03-01T19:49:04.988Z,2.35
2023-03-01T19:51:36.783Z,2.88
2023-03-01T19:54:06.105Z,3.05
2023-03-01T19:56:34.581Z,2.95
2023-03-01T19:59:04.586Z,2.83
2023-03-01T20:01:34.307Z,2.55
2023-03-01T20:04:02.986Z,2.50
2023-03-01T20:06:31.569Z,2.08
2023-03-01T20:09:02.344Z,2.13
2023-03-01T20:11:33.902Z,1.73
2023-03-01T20:14:02.284Z,1.67
2023-03-01T20:16:30.311Z,1.80
2023-03-01T20:19:00.869Z,1.27
2023-03-01T20:21:28.578Z,2.30
2023-03-01T20:23:56.295Z,1.95
2023-03-01T20:26:25.386Z,2.15
2023-03-01T20:28:55.159Z,2.25
2023-03-01T20:31:28.787Z,2.60
2023-03-01T20:33:58.255Z,2.90
2023-03-01T20:36:26.569Z,3.05
2023-03-01T20:38:54.895Z,3.55
2023-03-01T20:41:25.911Z,2.88
2023-03-01T20:43:58.627Z,1.25
2023-03-01T20:46:27.138Z,2.38
2023-03-01T20:48:54.703Z,2.03
2023-03-01T20:51:22.673Z,1.95
2023-03-01T20:53:50.471Z,2.15
2023-03-01T20:56:20.244Z,2.10
2023-03-01T20:59:04.433Z,2.08
2023-03-01T21:01:31.973Z,1.80
2023-03-01T21:03:59.598Z,2.03
2023-03-01T21:06:27.141Z,2.05
2023-03-01T21:08:55.441Z,1.67
2023-03-01T21:11:26.177Z,1.60
2023-03-01T21:13:54.450Z,1.52
2023-03-01T21:16:22.685Z,2.15
2023-03-01T21:18:50.272Z,2.05
2023-03-01T21:21:20.459Z,2.25
2023-03-01T21:23:48.443Z,2.28
2023-03-01T21:26:21.314Z,2.72
2023-03-01T21:28:50.925Z,2.63
2023-03-01T21:31:22.102Z,2.22
2023-03-01T21:33:52.114Z,2.58
2023-03-01T21:36:22.598Z,2.80
2023-03-01T21:38:51.918Z,2.08
2023-03-01T21:41:25.516Z,2.53
2023-03-01T21:43:56.878Z,2.65
2023-03-01T21:46:25.645Z,3.13
2023-03-01T21:48:54.954Z,2.75
2023-03-01T21:51:25.299Z,3.33
2023-03-01T21:53:54.564Z,2.97
2023-03-01T21:56:24.609Z,3.28
2023-03-01T21:58:52.587Z,2.58
2023-03-01T22:01:29.871Z,2.05
2023-03-01T22:03:58.865Z,2.47
2023-03-01T22:06:34.119Z,2.42
2023-03-01T22:09:06.031Z,2.55
2023-03-01T22:11:36.243Z,2.50
2023-03-01T22:14:04.914Z,2.40
2023-03-01T22:16:35.119Z,2.22
2023-03-01T22:19:04.292Z,2.85
2023-03-01T22:21:31.579Z,1.92
2023-03-01T22:23:59.287Z,3.10
2023-03-01T22:26:39.024Z,2.58
2023-03-01T22:29:15.917Z,2.72
2023-03-01T22:31:43.735Z,2.15
2023-03-01T22:34:12.053Z,2.42
2023-03-01T22:36:39.569Z,2.47
2023-03-01T22:39:07.292Z,1.75
2023-03-01T22:41:44.900Z,2.72
2023-03-01T22:44:17.988Z,2.95
2023-03-01T22:46:46.083Z,2.40
2023-03-01T22:49:16.163Z,2.92
2023-03-01T22:51:44.200Z,3.97
2023-03-01T22:54:11.779Z,3.33
2023-03-01T22:56:40.113Z,3.20
2023-03-01T22:59:10.696Z,3.25
2023-03-01T23:01:39.993Z,3.25
2023-03-01T23:04:07.707Z,3.33
2023-03-01T23:06:35.713Z,2.80
2023-03-01T23:09:06.825Z,3.13
2023-03-01T23:11:34.170Z,2.95
2023-03-01T23:14:01.391Z,2.50
2023-03-01T23:16:29.158Z,2.53
2023-03-01T23:19:00.221Z,2.72
2023-03-01T23:21:28.132Z,2.80
2023-03-01T23:23:56.269Z,2.42
2023-03-01T23:26:27.106Z,2.53
2023-03-01T23:28:56.254Z,2.63
2023-03-01T23:31:25.583Z,2.85
2023-03-01T23:33:53.645Z,2.72
2023-03-01T23:36:22.357Z,2.15
2023-03-01T23:38:52.650Z,2.38
2023-03-01T23:41:22.256Z,2.47
2023-03-01T23:43:51.524Z,2.42
2023-03-01T23:46:20.346Z,2.67
2023-03-01T23:48:48.483Z,2.38
2023-03-01T23:51:17.680Z,3.13
2023-03-01T23:53:54.384Z,2.45
2023-03-01T23:56:44.709Z,2.95
2023-03-01T23:59:14.818Z,3.30
